createdAt,value
2019-05-01T03:15:32.202Z,15.83
2019-05-01T03:18:10.791Z,17.50
2019-05-01T03:20:54.939Z,18.27
2019-05-01T03:23:34.073Z,17.20
2019-05-01T03:26:03.783Z,16.93
2019-05-01T03:28:32.842Z,17.37
2019-05-01T03:31:02.265Z,18.03
2019-05-01T03:33:31.502Z,16.97
2019-05-01T03:36:00.638Z,17.97
2019-05-01T03:38:30.909Z,17.00
2019-05-01T03:41:00.317Z,17.33
2019-05-01T03:43:29.791Z,17.63
2019-05-01T03:45:58.929Z,17.60
2019-05-01T03:48:28.207Z,19.53
2019-05-01T03:50:57.560Z,16.90
2019-05-01T03:53:26.675Z,18.13
2019-05-01T03:55:55.764Z,17.27
2019-05-01T03:58:24.906Z,17.07
2019-05-01T04:01:06.995Z,16.70
2019-05-01T04:03:41.182Z,17.00
2019-05-01T04:06:10.546Z,16.30
2019-05-01T04:08:40.414Z,17.67
2019-05-01T04:11:10.112Z,16.10
2019-05-01T04:13:47.144Z,16.33
2019-05-01T04:16:16.888Z,16.80
2019-05-01T04:18:46.237Z,17.40
2019-05-01T04:21:17.258Z,17.80
2019-05-01T04:23:46.504Z,15.97
2019-05-01T04:26:15.721Z,14.13
2019-05-01T04:28:53.380Z,15.90
2019-05-01T04:31:47.971Z,15.40
2019-05-01T04:34:40.997Z,15.43
2019-05-01T04:37:11.206Z,15.93
2019-05-01T04:39:40.643Z,16.07
2019-05-01T04:42:10.120Z,16.50
2019-05-01T04:44:39.421Z,13.90
2019-05-01T04:47:08.468Z,14.43
2019-05-01T04:49:37.709Z,15.27
2019-05-01T04:52:06.783Z,15.53
2019-05-01T04:54:35.835Z,15.10
2019-05-01T04:57:05.099Z,13.80
2019-05-01T04:59:34.398Z,14.27
2019-05-01T05:02:05.503Z,14.70
2019-05-01T05:04:34.744Z,13.90
2019-05-01T05:07:04.234Z,14.97
2019-05-01T05:09:42.539Z,13.10
2019-05-01T05:12:49.042Z,13.53
2019-05-01T05:15:52.377Z,13.47
2019-05-01T05:18:21.503Z,13.80
2019-05-01T05:20:50.767Z,12.20
2019-05-01T05:23:20.406Z,14.93
2019-05-01T05:25:49.655Z,14.40
2019-05-01T05:28:20.467Z,13.80
2019-05-01T05:30:51.223Z,15.63
2019-05-01T05:33:21.729Z,13.90
2019-05-01T05:35:52.598Z,14.43
2019-05-01T05:38:33.153Z,13.90
2019-05-01T05:41:04.166Z,13.40
2019-05-01T05:43:33.708Z,14.17
2019-05-01T05:46:03.957Z,13.37
2019-05-01T05:48:33.413Z,13.03
2019-05-01T05:51:19.426Z,15.57
2019-05-01T05:53:53.187Z,15.23
2019-05-01T05:56:28.311Z,12.80
2019-05-01T05:59:04.355Z,13.00
2019-05-01T06:02:03.569Z,13.03
2019-05-01T06:04:53.730Z,14.93
2019-05-01T06:07:28.458Z,12.87
2019-05-01T06:10:23.120Z,13.93
2019-05-01T06:13:09.039Z,14.23
2019-05-01T06:15:59.962Z,13.53
2019-05-01T06:18:40.551Z,12.43
2019-05-01T06:21:19.545Z,12.83
2019-05-01T06:23:57.828Z,12.50
2019-05-01T06:26:31.887Z,14.13
2019-05-01T06:29:02.106Z,14.00
2019-05-01T06:31:31.771Z,13.83
2019-05-01T06:34:01.733Z,13.90
2019-05-01T06:36:31.655Z,13.60
2019-05-01T06:39:01.434Z,15.30
2019-05-01T06:41:42.448Z,12.30
2019-05-01T06:44:12.530Z,13.83
2019-05-01T06:47:03.453Z,16.17
2019-05-01T06:49:43.803Z,15.20
2019-05-01T06:52:15.219Z,14.90
2019-05-01T06:54:47.825Z,11.40
2019-05-01T06:57:16.092Z,12.90
2019-05-01T06:59:45.590Z,14.37
2019-05-01T07:02:16.180Z,12.00
2019-05-01T07:04:47.272Z,13.53
2019-05-01T07:07:24.990Z,12.70
2019-05-01T07:09:51.995Z,12.17
2019-05-01T07:12:23.974Z,12.07
2019-05-01T07:14:54.222Z,11.90
2019-05-01T07:17:23.399Z,10.30
2019-05-01T07:20:12.028Z,13.10
2019-05-01T07:22:42.527Z,11.50
2019-05-01T07:25:12.608Z,11.57
2019-05-01T07:27:41.806Z,11.27
2019-05-01T07:30:24.826Z,11.10
2019-05-01T07:32:53.959Z,11.37
2019-05-01T07:35:23.182Z,11.37
2019-05-01T07:37:52.369Z,10.87
2019-05-01T07:40:28.961Z,10.83
2019-05-01T07:42:56.352Z,10.90
2019-05-01T07:45:53.687Z,10.60
2019-05-01T07:48:36.019Z,11.47
2019-05-01T07:51:08.678Z,10.10
2019-05-01T07:53:38.178Z,11.77
2019-05-01T07:56:08.808Z,10.70
2019-05-01T07:58:38.336Z,8.93
2019-05-01T08:01:17.669Z,10.10
2019-05-01T08:03:44.138Z,10.47
2019-05-01T08:06:16.264Z,10.00
2019-05-01T08:08:44.190Z,9.37
2019-05-01T08:11:13.342Z,9.47
2019-05-01T08:13:42.375Z,10.30
2019-05-01T08:16:11.623Z,9.60
2019-05-01T08:18:46.751Z,9.97
2019-05-01T08:21:27.788Z,9.57
2019-05-01T08:23:57.065Z,9.40
2019-05-01T08:26:26.154Z,9.73
2019-05-01T08:29:20.196Z,10.77
2019-05-01T08:32:03.488Z,11.33
2019-05-01T08:34:32.215Z,11.20
2019-05-01T08:37:01.373Z,10.73
2019-05-01T08:39:30.478Z,11.00
2019-05-01T08:42:03.068Z,11.83
2019-05-01T08:44:33.067Z,11.40
2019-05-01T08:47:14.398Z,11.80
2019-05-01T08:49:53.854Z,11.80
2019-05-01T08:52:22.943Z,11.73
2019-05-01T08:54:54.718Z,11.43
2019-05-01T08:57:22.863Z,11.10
2019-05-01T08:59:55.818Z,11.23
2019-05-01T09:02:22.853Z,9.67
2019-05-01T09:05:01.551Z,10.50
2019-05-01T09:07:24.162Z,10.40
2019-05-01T09:09:53.439Z,10.80
2019-05-01T09:12:22.610Z,10.93
2019-05-01T09:14:51.641Z,10.67
2019-05-01T09:17:20.669Z,11.87
2019-05-01T09:19:49.689Z,9.43
2019-05-01T09:22:18.796Z,9.30
2019-05-01T09:24:48.654Z,7.57
2019-05-01T09:27:37.611Z,9.10
2019-05-01T09:30:35.769Z,9.17
2019-05-01T09:33:05.096Z,9.00
2019-05-01T09:35:35.126Z,8.63
2019-05-01T09:38:04.334Z,9.10
2019-05-01T09:40:33.510Z,10.50
2019-05-01T09:43:02.492Z,9.23
2019-05-01T09:45:31.507Z,9.60
2019-05-01T09:48:00.690Z,9.87
2019-05-01T09:50:31.583Z,9.60
2019-05-01T09:53:19.901Z,9.90
2019-05-01T09:55:58.447Z,8.80
2019-05-01T09:58:27.554Z,8.37
2019-05-01T10:00:58.691Z,9.90
2019-05-01T10:03:27.767Z,8.00
2019-05-01T10:05:56.761Z,11.10
2019-05-01T10:08:25.859Z,9.93
2019-05-01T10:10:54.928Z,10.73
2019-05-01T10:13:24.169Z,10.13
2019-05-01T10:15:53.230Z,10.23
2019-05-01T10:18:22.302Z,9.07
2019-05-01T10:20:51.391Z,10.57
2019-05-01T10:23:23.333Z,9.40
2019-05-01T10:25:55.535Z,8.90
2019-05-01T10:28:37.071Z,8.70
2019-05-01T10:31:18.311Z,9.30
2019-05-01T10:33:50.424Z,10.00
2019-05-01T10:36:36.279Z,10.30
2019-05-01T10:39:08.712Z,9.53
2019-05-01T10:41:41.173Z,10.07
2019-05-01T10:44:09.692Z,9.57
2019-05-01T10:46:39.393Z,9.30
2019-05-01T10:49:10.687Z,11.10
2019-05-01T10:51:42.253Z,9.93
2019-05-01T10:54:12.176Z,9.40
2019-05-01T10:56:43.211Z,9.00
2019-05-01T10:59:12.741Z,9.00
2019-05-01T11:01:47.534Z,9.30
2019-05-01T11:04:17.495Z,9.13
2019-05-01T11:06:47.138Z,9.93
2019-05-01T11:09:17.075Z,9.97
2019-05-01T11:11:46.967Z,9.70
2019-05-01T11:14:16.083Z,9.17
2019-05-01T11:16:45.095Z,9.27
2019-05-01T11:19:14.108Z,8.60
2019-05-01T11:21:43.216Z,8.60
2019-05-01T11:24:12.342Z,8.93
2019-05-01T11:26:41.478Z,8.57
2019-05-01T11:29:10.686Z,8.40
2019-05-01T11:31:49.541Z,7.40
2019-05-01T11:34:37.065Z,8.77
2019-05-01T11:37:20.321Z,7.17
2019-05-01T11:40:02.317Z,9.07
2019-05-01T11:42:31.387Z,8.93
2019-05-01T11:45:00.515Z,9.10
2019-05-01T11:47:29.612Z,7.93
2019-05-01T11:49:58.621Z,9.90
2019-05-01T11:52:27.691Z,8.90
2019-05-01T11:54:56.627Z,9.70
2019-05-01T11:57:25.911Z,8.83
2019-05-01T11:59:55.796Z,9.87
2019-05-01T12:02:24.892Z,10.60
2019-05-01T12:04:53.913Z,10.37
2019-05-01T12:07:23.089Z,8.87
2019-05-01T12:09:52.192Z,9.63
2019-05-01T12:12:22.792Z,10.40
2019-05-01T12:14:51.883Z,9.07
2019-05-01T12:17:26.298Z,10.60
2019-05-01T12:19:55.324Z,11.43
2019-05-01T12:22:24.612Z,9.90
2019-05-01T12:24:53.808Z,10.47
2019-05-01T12:27:22.794Z,8.90
2019-05-01T12:29:51.922Z,10.03
2019-05-01T12:32:20.923Z,11.03
2019-05-01T12:34:49.875Z,9.57
2019-05-01T12:37:44.096Z,7.87
2019-05-01T12:40:15.976Z,8.13
2019-05-01T12:42:45.143Z,9.10
2019-05-01T12:45:15.966Z,9.53
2019-05-01T12:47:50.972Z,8.93
2019-05-01T12:50:21.175Z,9.33
2019-05-01T12:53:08.140Z,8.73
2019-05-01T12:55:48.400Z,9.27
2019-05-01T12:58:17.987Z,9.60
2019-05-01T13:00:50.628Z,9.40
2019-05-01T13:03:20.362Z,8.57
2019-05-01T13:05:50.094Z,9.43
2019-05-01T13:08:19.273Z,8.87
2019-05-01T13:10:50.485Z,9.20
2019-05-01T13:13:20.841Z,9.23
2019-05-01T13:15:50.435Z,8.77
2019-05-01T13:18:19.833Z,8.87
2019-05-01T13:20:48.915Z,9.17
2019-05-01T13:23:18.517Z,9.53
2019-05-01T13:25:48.886Z,10.13
2019-05-01T13:28:42.848Z,9.00
2019-05-01T13:31:24.068Z,7.93
2019-05-01T13:33:53.588Z,10.43
2019-05-01T13:36:22.715Z,9.57
2019-05-01T13:38:51.906Z,8.70
2019-05-01T13:41:23.016Z,7.20
2019-05-01T13:43:52.224Z,6.80
2019-05-01T13:46:21.346Z,9.10
2019-05-01T13:48:50.455Z,8.80
2019-05-01T13:51:19.530Z,9.50
2019-05-01T13:53:48.547Z,7.63
2019-05-01T13:56:17.614Z,8.10
2019-05-01T13:58:46.610Z,8.60
2019-05-01T14:01:16.358Z,8.73
2019-05-01T14:03:45.471Z,9.90
2019-05-01T14:06:14.563Z,10.00
2019-05-01T14:08:43.567Z,9.80
2019-05-01T14:11:12.575Z,9.60
2019-05-01T14:13:41.511Z,9.63
2019-05-01T14:16:10.676Z,10.00
2019-05-01T14:18:39.663Z,10.17
2019-05-01T14:21:27.915Z,11.10
2019-05-01T14:24:19.231Z,11.20
2019-05-01T14:26:48.503Z,11.63
2019-05-01T14:29:17.720Z,11.60
2019-05-01T14:31:46.827Z,11.27
2019-05-01T14:34:15.899Z,10.60
2019-05-01T14:36:44.911Z,10.37
2019-05-01T14:39:14.156Z,10.73
2019-05-01T14:41:43.290Z,9.20
2019-05-01T14:44:12.353Z,7.83
2019-05-01T14:46:41.437Z,11.03
2019-05-01T14:49:10.606Z,9.93
2019-05-01T14:51:39.747Z,10.90
2019-05-01T14:54:08.888Z,10.40
2019-05-01T14:56:37.895Z,9.20
2019-05-01T14:59:07.064Z,9.13
2019-05-01T15:01:35.995Z,9.30
2019-05-01T15:04:05.863Z,8.63
2019-05-01T15:06:34.949Z,10.40
2019-05-01T15:09:06.380Z,10.07
2019-05-01T15:11:36.024Z,10.83
2019-05-01T15:14:21.283Z,10.23
2019-05-01T15:17:13.701Z,9.10
2019-05-01T15:19:47.289Z,9.37
2019-05-01T15:22:16.316Z,9.50
2019-05-01T15:24:45.351Z,10.27
2019-05-01T15:27:14.312Z,9.70
2019-05-01T15:29:43.388Z,10.07
2019-05-01T15:32:12.473Z,8.90
2019-05-01T15:34:41.486Z,9.07
2019-05-01T15:37:10.620Z,10.07
2019-05-01T15:39:48.204Z,8.93
2019-05-01T15:42:40.523Z,9.57
2019-05-01T15:45:10.353Z,8.67
2019-05-01T15:47:40.242Z,8.10
2019-05-01T15:50:10.115Z,8.40
2019-05-01T15:52:39.867Z,8.10
2019-05-01T15:55:09.953Z,8.50
2019-05-01T15:57:40.045Z,9.10
2019-05-01T16:00:10.792Z,10.17
2019-05-01T16:02:40.178Z,10.47
2019-05-01T16:05:09.479Z,8.80
2019-05-01T16:07:39.287Z,8.20
2019-05-01T16:10:11.834Z,8.30
2019-05-01T16:12:46.617Z,8.37
2019-05-01T16:15:26.189Z,8.77
2019-05-01T16:17:55.815Z,8.70
2019-05-01T16:20:25.471Z,9.67
2019-05-01T16:22:56.719Z,8.43
2019-05-01T16:25:26.170Z,8.50
2019-05-01T16:27:55.901Z,8.47
2019-05-01T16:30:26.836Z,9.13
2019-05-01T16:32:57.481Z,8.63
2019-05-01T16:35:27.007Z,9.10
2019-05-01T16:37:58.698Z,8.40
2019-05-01T16:40:41.238Z,6.87
2019-05-01T16:43:11.750Z,7.87
2019-05-01T16:45:40.723Z,7.73
2019-05-01T16:48:09.870Z,9.20
2019-05-01T16:50:38.871Z,9.10
2019-05-01T16:53:08.063Z,8.30
2019-05-01T16:55:36.999Z,8.10
2019-05-01T16:58:08.592Z,7.70
2019-05-01T17:01:05.461Z,8.80
2019-05-01T17:03:56.828Z,7.63
2019-05-01T17:06:35.825Z,7.10
2019-05-01T17:09:37.203Z,7.50
2019-05-01T17:12:06.500Z,8.80
2019-05-01T17:14:35.562Z,8.70
2019-05-01T17:17:06.418Z,7.53
2019-05-01T17:19:35.508Z,10.03
2019-05-01T17:22:04.638Z,10.03
2019-05-01T17:24:33.572Z,9.20
2019-05-01T17:27:02.600Z,8.37
2019-05-01T17:29:31.697Z,7.70
2019-05-01T17:32:00.885Z,8.10
2019-05-01T17:34:30.761Z,9.83
2019-05-01T17:37:00.744Z,9.50
2019-05-01T17:39:29.749Z,9.60
2019-05-01T17:42:01.963Z,9.50
2019-05-01T17:44:29.332Z,10.37
2019-05-01T17:46:58.254Z,9.53
2019-05-01T17:49:27.201Z,8.23
2019-05-01T17:51:56.255Z,9.47
2019-05-01T17:54:25.276Z,10.30
2019-05-01T17:56:55.777Z,9.27
2019-05-01T17:59:24.988Z,10.03
2019-05-01T18:02:11.519Z,9.00
2019-05-01T18:04:57.269Z,9.63
2019-05-01T18:07:28.761Z,9.37
2019-05-01T18:09:58.071Z,8.60
2019-05-01T18:12:28.609Z,8.97
2019-05-01T18:14:57.782Z,8.90
2019-05-01T18:17:26.962Z,9.30
2019-05-01T18:19:56.061Z,9.40
2019-05-01T18:22:37.078Z,9.90
2019-05-01T18:25:33.060Z,9.70
2019-05-01T18:28:17.484Z,10.00
2019-05-01T18:30:46.645Z,9.17
2019-05-01T18:33:15.719Z,8.33
2019-05-01T18:35:48.857Z,10.80
2019-05-01T18:38:24.449Z,9.70
2019-05-01T18:40:58.051Z,8.80
2019-05-01T18:43:31.791Z,10.40
2019-05-01T18:45:58.550Z,10.17
2019-05-01T18:48:27.610Z,9.20
2019-05-01T18:50:56.835Z,9.30
2019-05-01T18:53:29.409Z,9.03
2019-05-01T18:56:01.344Z,10.10
2019-05-01T18:58:29.153Z,10.70
2019-05-01T19:00:58.599Z,11.00
2019-05-01T19:03:29.718Z,9.70
2019-05-01T19:05:58.487Z,10.30
2019-05-01T19:08:27.583Z,9.20
2019-05-01T19:10:56.922Z,9.70
2019-05-01T19:13:25.989Z,10.67
2019-05-01T19:15:55.470Z,11.17
2019-05-01T19:18:25.565Z,9.40
2019-05-01T19:20:59.626Z,8.90
2019-05-01T19:23:27.894Z,10.53
2019-05-01T19:26:04.977Z,11.63
2019-05-01T19:28:27.702Z,10.27
2019-05-01T19:30:58.664Z,10.43
2019-05-01T19:33:27.846Z,10.60
2019-05-01T19:35:57.499Z,9.97
2019-05-01T19:38:29.414Z,10.40
2019-05-01T19:40:57.396Z,11.97
2019-05-01T19:43:26.645Z,11.30
2019-05-01T19:45:56.458Z,13.03
2019-05-01T19:48:26.799Z,12.63
2019-05-01T19:50:55.918Z,11.50
2019-05-01T19:53:25.699Z,12.50
2019-05-01T19:55:57.001Z,13.40
2019-05-01T19:58:26.370Z,12.93
2019-05-01T20:01:04.185Z,12.43
2019-05-01T20:03:36.109Z,12.80
2019-05-01T20:06:05.529Z,12.17
2019-05-01T20:08:34.856Z,12.27
2019-05-01T20:11:04.361Z,11.87
2019-05-01T20:13:33.431Z,11.63
2019-05-01T20:16:02.639Z,11.60
2019-05-01T20:18:31.707Z,11.07
2019-05-01T20:21:00.709Z,11.67
2019-05-01T20:23:31.321Z,11.90
2019-05-01T20:26:00.443Z,12.73
2019-05-01T20:28:29.539Z,12.47
2019-05-01T20:30:58.705Z,12.97
2019-05-01T20:33:27.819Z,12.33
2019-05-01T20:36:00.577Z,13.60
2019-05-01T20:38:27.833Z,13.80
2019-05-01T20:40:57.020Z,12.23
2019-05-01T20:43:25.938Z,12.40
2019-05-01T20:45:55.079Z,12.90
2019-05-01T20:48:25.158Z,13.67
2019-05-01T20:50:54.409Z,14.03
2019-05-01T20:53:23.410Z,13.13
2019-05-01T20:56:01.885Z,13.30
2019-05-01T20:58:30.954Z,13.63
2019-05-01T21:01:02.976Z,13.57
2019-05-01T21:03:32.495Z,13.90
2019-05-01T21:06:23.222Z,12.80
2019-05-01T21:09:02.647Z,14.07
2019-05-01T21:11:35.287Z,14.03
2019-05-01T21:14:18.045Z,14.27
2019-05-01T21:16:38.074Z,13.20
2019-05-01T21:19:06.134Z,14.40
2019-05-01T21:21:35.058Z,14.03
2019-05-01T21:24:04.324Z,13.60
2019-05-01T21:26:33.635Z,14.10
2019-05-01T21:29:04.103Z,13.07
2019-05-01T21:31:34.144Z,14.10
2019-05-01T21:34:04.256Z,13.93
2019-05-01T21:36:33.442Z,14.10
2019-05-01T21:39:02.438Z,13.40
2019-05-01T21:41:32.863Z,13.67
2019-05-01T21:44:03.132Z,14.43
2019-05-01T21:46:34.060Z,13.00
2019-05-01T21:49:03.349Z,14.70
2019-05-01T21:51:32.874Z,14.53
2019-05-01T21:54:03.279Z,13.40
2019-05-01T21:56:32.498Z,13.73
2019-05-01T21:59:04.744Z,14.10
2019-05-01T22:01:34.816Z,14.20
2019-05-01T22:04:03.230Z,15.23
2019-05-01T22:06:32.760Z,13.50
2019-05-01T22:09:02.022Z,13.57
2019-05-01T22:11:33.063Z,15.20
2019-05-01T22:14:03.608Z,15.30
2019-05-01T22:16:32.751Z,13.87
2019-05-01T22:19:07.418Z,14.00
2019-05-01T22:22:10.501Z,14.10
2019-05-01T22:24:44.574Z,14.20
2019-05-01T22:27:18.636Z,14.30
2019-05-01T22:29:53.681Z,12.57
